Guaira, Brazil
Current Conditions -  °F | °C
As of 12:00 PM on Thursday 30 Oct 2014 (Local Time) from SBUR Reporting Station
Broken Clouds Broken Clouds  
Wind Chill: 84°   Ceiling: 3000
Heat Index: 85°   Visibility: 6mi
Dew Point: 63°   Wind: 15mph
Humidity: 48%   Direction: 320°NW
Pressure: 29.97"   Gusts: NA
Location:  20.33°S, 48.32°W
Report Text: SBUR 301400Z 32013KT 9999 BKN030 29/17 Q1015
Loading
Personal Weather Stations






























Interactive Weather Map
Tropical Storm Tracking
New forecast layout! Learn more

10-Day Weather Forecast

Advertisements
Track Severe Weather on mobile